TimeAKDT,TemperatureF,Dew PointF,Humidity,Sea Level PressureIn,VisibilityMPH,Wind Direction,Wind SpeedMPH,Gust SpeedMPH,PrecipitationIn,Events,Conditions,WindDirDegrees,DateUTC
12:54 AM,37.0,33.1,86,30.36,10.0,NW,8.1,-,N/A,,Overcast,310,2013-03-31 08:54:00
1:26 AM,37.4,33.8,87,30.35,9.0,WNW,4.6,-,N/A,,Overcast,290,2013-03-31 09:26:00
1:54 AM,36.0,34.0,93,30.36,10.0,WNW,6.9,-,0.00,,Overcast,290,2013-03-31 09:54:00
2:14 AM,35.6,33.8,93,30.35,10.0,WNW,4.6,-,N/A,,Overcast,300,2013-03-31 10:14:00
2:54 AM,36.0,34.0,93,30.36,10.0,WNW,8.1,-,N/A,,Overcast,290,2013-03-31 10:54:00
3:18 AM,35.6,33.8,93,30.36,10.0,WNW,8.1,-,N/A,,Overcast,300,2013-03-31 11:18:00
3:54 AM,36.0,33.1,89,30.36,10.0,WNW,8.1,-,N/A,,Overcast,300,2013-03-31 11:54:00
4:54 AM,35.1,34.0,96,30.35,7.0,WNW,6.9,-,N/A,,Overcast,300,2013-03-31 12:54:00
5:49 AM,33.8,33.8,100,30.35,2.5,WNW,11.5,-,N/A,,Overcast,300,2013-03-31 13:49:00
5:54 AM,34.0,34.0,100,30.36,2.0,NW,11.5,-,N/A,,Overcast,310,2013-03-31 13:54:00
6:01 AM,33.8,33.8,100,30.35,1.8,WNW,11.5,-,N/A,,Overcast,290,2013-03-31 14:01:00
6:09 AM,33.8,33.8,100,30.35,1.8,WNW,12.7,-,N/A,,Overcast,300,2013-03-31 14:09:00
6:17 AM,33.8,33.8,100,30.35,3.0,WNW,12.7,-,N/A,,Overcast,300,2013-03-31 14:17:00
6:31 AM,33.8,33.8,100,30.35,7.0,WNW,11.5,-,N/A,,Overcast,300,2013-03-31 14:31:00
6:54 AM,34.0,33.1,96,30.35,10.0,WNW,12.7,-,N/A,,Overcast,290,2013-03-31 14:54:00
7:54 AM,34.0,32.0,92,30.35,9.0,WNW,12.7,-,N/A,,Overcast,290,2013-03-31 15:54:00
8:54 AM,35.1,32.0,89,30.34,10.0,WNW,11.5,-,N/A,,Overcast,290,2013-03-31 16:54:00
9:54 AM,37.0,32.0,82,30.33,10.0,WNW,11.5,-,N/A,,Overcast,300,2013-03-31 17:54:00
10:54 AM,39.0,32.0,76,30.31,10.0,WNW,10.4,-,N/A,,Overcast,300,2013-03-31 18:54:00
11:54 AM,42.1,32.0,67,30.31,10.0,WNW,12.7,-,N/A,,Mostly Cloudy,290,2013-03-31 19:54:00
12:54 PM,42.1,32.0,67,30.28,10.0,WNW,11.5,-,N/A,,Mostly Cloudy,290,2013-03-31 20:54:00
1:54 PM,44.1,30.0,58,30.27,10.0,West,9.2,-,N/A,,Scattered Clouds,280,2013-03-31 21:54:00
2:54 PM,44.1,28.9,55,30.24,10.0,West,8.1,-,N/A,,Mostly Cloudy,270,2013-03-31 22:54:00
3:54 PM,44.1,28.9,55,30.22,10.0,West,4.6,-,N/A,,Clear,280,2013-03-31 23:54:00
4:54 PM,44.1,28.0,53,30.19,10.0,Calm,Calm,-,N/A,,Scattered Clouds,0,2013-04-01 00:54:00
5:54 PM,39.9,30.9,70,30.17,10.0,Calm,Calm,-,N/A,,Mostly Cloudy,0,2013-04-01 01:54:00
6:54 PM,41.0,30.9,67,30.14,10.0,NW,3.5,-,N/A,,Overcast,320,2013-04-01 02:54:00
7:54 PM,37.0,30.9,79,30.12,10.0,Calm,Calm,-,N/A,,Overcast,0,2013-04-01 03:54:00
8:54 PM,37.0,30.0,76,30.10,10.0,WNW,5.8,-,N/A,,Overcast,300,2013-04-01 04:54:00
9:54 PM,39.0,27.0,62,30.08,10.0,NW,5.8,-,N/A,,Overcast,310,2013-04-01 05:54:00
10:54 PM,36.0,30.0,79,30.07,10.0,Calm,Calm,-,N/A,,Overcast,0,2013-04-01 06:54:00
11:54 PM,36.0,28.9,76,30.05,10.0,WNW,6.9,-,N/A,,Overcast,290,2013-04-01 07:54:00